Machynlleth, United Kingdom
Current Conditions -  °F | °C
As of 9:50 PM on Thursday 23 Oct 2014 (Local Time) from EGOS Reporting Station
Broken Clouds Broken Clouds  
Wind Chill: 14°   Ceiling: 4400
Heat Index: 14°   Visibility: 6mi
Dew Point: 11°   Wind: 7mph
Humidity: 82%   Direction: 180°S
Pressure: 29.91"   Gusts: NA
Location:  52.59°N, 3.85°W
Report Text: EGOS 232050Z AUTO 18006KT 9999 SCT021/// BKN044/// 14/11 Q1013
Loading
Personal Weather Stations






























Interactive Weather Map
Tropical Storm Tracking
New forecast layout! Learn more

10-Day Weather Forecast

Advertisements
Track Severe Weather on mobile